createdAt,value
2022-11-19T00:01:04.794Z,12.93
2022-11-19T00:04:10.976Z,12.94
2022-11-19T00:07:17.366Z,12.79
2022-11-19T00:10:25.269Z,12.52
2022-11-19T00:13:31.455Z,12.43
2022-11-19T00:16:38.207Z,12.32
2022-11-19T00:19:44.501Z,12.12
2022-11-19T00:22:53.342Z,11.89
2022-11-19T00:26:07.233Z,12.33
2022-11-19T00:29:17.831Z,12.02
2022-11-19T00:32:24.320Z,11.98
2022-11-19T00:35:30.421Z,11.95
2022-11-19T00:38:37.622Z,11.74
2022-11-19T00:41:45.605Z,11.81
2022-11-19T00:44:52.433Z,11.66
2022-11-19T00:47:58.409Z,11.85
2022-11-19T00:51:05.154Z,11.59
2022-11-19T00:54:11.640Z,11.61
2022-11-19T00:57:19.489Z,11.60
2022-11-19T01:00:26.185Z,11.51
2022-11-19T01:03:32.841Z,11.33
2022-11-19T01:06:39.260Z,11.43
2022-11-19T01:09:47.465Z,11.47
2022-11-19T01:13:14.476Z,11.55
2022-11-19T01:16:23.115Z,11.27
2022-11-19T01:19:29.332Z,11.13
2022-11-19T01:22:35.782Z,11.07
2022-11-19T01:25:42.188Z,11.14
2022-11-19T01:28:50.376Z,11.22
2022-11-19T01:31:56.629Z,11.07
2022-11-19T01:35:03.051Z,11.14
2022-11-19T01:38:09.516Z,11.28
2022-11-19T01:41:15.713Z,11.05
2022-11-19T01:45:00.373Z,11.32
2022-11-19T01:48:11.213Z,11.25
2022-11-19T01:51:22.688Z,11.18
2022-11-19T01:54:35.945Z,11.26
2022-11-19T01:57:42.749Z,11.48
2022-11-19T02:00:50.782Z,11.43
2022-11-19T02:04:00.728Z,11.34
2022-11-19T02:07:09.004Z,11.45
2022-11-19T02:10:15.542Z,11.32
2022-11-19T02:13:31.198Z,11.46
2022-11-19T02:16:52.194Z,11.49
2022-11-19T02:20:22.024Z,11.21
2022-11-19T02:24:01.867Z,11.32
2022-11-19T02:27:38.208Z,10.86
2022-11-19T02:30:51.019Z,11.13
2022-11-19T02:34:01.617Z,11.16
2022-11-19T02:37:14.733Z,10.78
2022-11-19T02:40:26.849Z,11.04
2022-11-19T02:43:39.273Z,11.17
2022-11-19T02:46:50.984Z,11.11
2022-11-19T02:50:02.291Z,11.26
2022-11-19T02:53:08.452Z,11.07
2022-11-19T02:56:17.910Z,11.05
2022-11-19T02:59:47.452Z,11.29
2022-11-19T03:03:15.174Z,11.17
2022-11-19T03:06:26.520Z,11.24
2022-11-19T03:09:36.328Z,11.20
2022-11-19T03:12:50.703Z,11.14
2022-11-19T03:16:15.380Z,10.90
2022-11-19T03:19:44.577Z,11.02
2022-11-19T03:22:55.400Z,11.18
2022-11-19T03:26:06.221Z,11.11
2022-11-19T03:29:16.291Z,11.09
2022-11-19T03:32:27.331Z,11.18
2022-11-19T03:35:38.882Z,11.29
2022-11-19T03:38:51.131Z,10.63
2022-11-19T03:41:59.118Z,11.07
2022-11-19T03:45:10.826Z,11.18
2022-11-19T03:48:18.731Z,11.12
2022-11-19T03:51:34.374Z,11.05
2022-11-19T03:54:41.666Z,11.00
2022-11-19T03:57:47.915Z,11.05
2022-11-19T04:00:54.185Z,11.16
2022-11-19T04:04:17.809Z,10.94
2022-11-19T04:07:25.462Z,10.77
2022-11-19T04:10:31.701Z,11.13
2022-11-19T04:13:38.031Z,11.09
2022-11-19T04:16:44.018Z,11.10
2022-11-19T04:19:50.140Z,11.12
2022-11-19T04:22:57.949Z,10.99
2022-11-19T04:26:04.145Z,10.96
2022-11-19T04:29:10.284Z,11.16
2022-11-19T04:32:16.577Z,10.98
2022-11-19T04:35:22.323Z,10.89
2022-11-19T04:38:29.867Z,11.09
2022-11-19T04:41:36.548Z,10.91
2022-11-19T04:44:42.603Z,11.23
2022-11-19T04:47:48.829Z,11.30
2022-11-19T04:50:55.136Z,11.12
2022-11-19T04:54:03.174Z,11.03
2022-11-19T04:57:09.370Z,11.08
2022-11-19T05:00:16.838Z,10.84
2022-11-19T05:03:23.188Z,11.03
2022-11-19T05:06:29.316Z,11.06
2022-11-19T05:09:36.842Z,10.99
2022-11-19T05:12:43.168Z,11.19
2022-11-19T05:15:49.246Z,11.23
2022-11-19T05:18:55.547Z,11.12
2022-11-19T05:22:01.860Z,11.35
2022-11-19T05:25:10.129Z,11.21
2022-11-19T05:28:16.550Z,11.34
2022-11-19T05:31:22.506Z,11.50
2022-11-19T05:34:28.992Z,11.51
2022-11-19T05:37:34.898Z,11.56
2022-11-19T05:40:42.446Z,11.52
2022-11-19T05:43:48.706Z,11.63
2022-11-19T05:46:56.876Z,11.68
2022-11-19T05:50:03.195Z,11.76
2022-11-19T05:53:09.441Z,11.44
2022-11-19T05:56:17.164Z,11.45
2022-11-19T05:59:23.383Z,11.56
2022-11-19T06:02:29.753Z,11.67
2022-11-19T06:05:40.007Z,11.66
2022-11-19T06:08:47.189Z,11.68
2022-11-19T06:11:54.461Z,11.72
2022-11-19T06:15:02.118Z,11.49
2022-11-19T06:18:08.570Z,11.73
2022-11-19T06:21:14.899Z,12.21
2022-11-19T06:24:21.941Z,12.15
2022-11-19T06:27:29.396Z,12.42
2022-11-19T06:30:35.870Z,12.53
2022-11-19T06:33:42.386Z,12.85
2022-11-19T06:36:50.697Z,12.84
2022-11-19T06:39:57.097Z,12.66
2022-11-19T06:43:05.308Z,12.65
2022-11-19T06:46:12.019Z,12.51
2022-11-19T06:49:20.333Z,12.52
2022-11-19T06:52:27.424Z,12.39
2022-11-19T06:55:33.839Z,12.73
2022-11-19T06:58:41.685Z,13.28
2022-11-19T07:01:47.965Z,13.52
2022-11-19T07:04:54.480Z,13.27
2022-11-19T07:08:03.262Z,13.69
2022-11-19T07:11:23.858Z,13.89
2022-11-19T07:14:31.645Z,13.39
2022-11-19T07:17:38.056Z,13.33
2022-11-19T07:20:47.056Z,13.17
2022-11-19T07:23:53.751Z,13.35
2022-11-19T07:26:59.851Z,13.49
2022-11-19T07:30:09.847Z,13.72
2022-11-19T07:33:16.330Z,13.41
2022-11-19T07:36:22.473Z,13.52
2022-11-19T07:39:29.739Z,13.59
2022-11-19T07:42:51.104Z,13.85
2022-11-19T07:45:58.778Z,14.39
2022-11-19T07:49:05.536Z,14.61
2022-11-19T07:52:11.798Z,14.52
2022-11-19T07:55:17.916Z,14.69
2022-11-19T07:58:24.035Z,14.89
2022-11-19T08:01:31.690Z,14.58
2022-11-19T08:04:38.209Z,14.70
2022-11-19T08:07:45.003Z,14.68
2022-11-19T08:10:51.324Z,14.74
2022-11-19T08:13:59.721Z,14.77
2022-11-19T08:17:24.975Z,14.63
2022-11-19T08:20:31.236Z,14.65
2022-11-19T08:23:38.425Z,14.59
2022-11-19T08:26:45.650Z,14.78
2022-11-19T08:29:52.108Z,15.28
2022-11-19T08:33:00.089Z,16.10
2022-11-19T08:36:07.046Z,15.64
2022-11-19T08:39:13.489Z,15.67
2022-11-19T08:42:37.328Z,15.50
2022-11-19T08:45:53.949Z,15.64
2022-11-19T08:49:01.875Z,15.71
2022-11-19T08:52:08.109Z,15.42
2022-11-19T08:55:14.384Z,15.53
2022-11-19T08:58:20.767Z,15.62
2022-11-19T09:01:27.184Z,15.55
2022-11-19T09:04:35.429Z,15.53
2022-11-19T09:07:41.947Z,15.27
2022-11-19T09:10:48.480Z,14.89
2022-11-19T09:13:54.667Z,15.36
2022-11-19T09:17:01.660Z,15.91
2022-11-19T09:20:10.615Z,15.41
2022-11-19T09:23:16.965Z,15.58
2022-11-19T09:26:23.732Z,16.35
2022-11-19T09:29:29.981Z,16.26
2022-11-19T09:32:36.467Z,16.42
2022-11-19T09:35:44.258Z,16.41
2022-11-19T09:38:50.453Z,16.46
2022-11-19T09:42:03.201Z,17.02
2022-11-19T09:45:18.589Z,16.46
2022-11-19T09:48:33.957Z,17.28
2022-11-19T09:51:47.586Z,17.09
2022-11-19T09:54:57.760Z,16.75
2022-11-19T09:58:07.933Z,16.67
2022-11-19T10:01:15.691Z,16.86
2022-11-19T10:04:25.196Z,16.81
2022-11-19T10:07:44.812Z,16.32
2022-11-19T10:11:05.760Z,16.68
2022-11-19T10:14:24.828Z,16.89
2022-11-19T10:17:41.223Z,16.26
2022-11-19T10:20:57.657Z,16.73
2022-11-19T10:24:18.267Z,16.74
2022-11-19T10:27:30.876Z,16.84
2022-11-19T10:30:37.475Z,16.74
2022-11-19T10:33:51.022Z,17.04
2022-11-19T10:37:01.529Z,16.97
2022-11-19T10:40:15.751Z,16.76
2022-11-19T10:43:29.968Z,17.05
2022-11-19T10:46:36.522Z,16.85
2022-11-19T10:49:44.619Z,16.94
2022-11-19T10:52:54.608Z,16.59
2022-11-19T10:56:04.847Z,16.83
2022-11-19T10:59:16.636Z,16.73
2022-11-19T11:02:30.673Z,16.87
2022-11-19T11:05:56.192Z,16.35
2022-11-19T11:09:02.216Z,16.50
2022-11-19T11:12:35.595Z,16.57
2022-11-19T11:15:46.877Z,16.61
2022-11-19T11:18:55.801Z,16.84
2022-11-19T11:22:02.065Z,16.98
2022-11-19T11:25:20.312Z,18.02
2022-11-19T11:28:27.841Z,18.03
2022-11-19T11:31:37.048Z,17.81
2022-11-19T11:34:44.512Z,17.62
2022-11-19T11:37:51.196Z,17.17
2022-11-19T11:44:35.954Z,17.29
2022-11-19T11:47:42.532Z,17.91
2022-11-19T11:50:49.285Z,18.07
2022-11-19T11:54:06.792Z,17.75
2022-11-19T11:57:18.828Z,18.07
2022-11-19T12:00:36.772Z,17.81
2022-11-19T12:04:04.084Z,17.69
2022-11-19T12:07:19.029Z,18.35
2022-11-19T12:10:31.609Z,18.32
2022-11-19T12:14:09.505Z,18.45
2022-11-19T12:17:31.393Z,18.32
2022-11-19T12:20:44.189Z,17.93
2022-11-19T12:24:06.241Z,17.92
2022-11-19T12:27:24.403Z,17.95
2022-11-19T12:30:39.082Z,17.98
2022-11-19T12:34:03.070Z,17.89
2022-11-19T12:37:23.092Z,17.93
2022-11-19T12:40:41.899Z,17.34
2022-11-19T12:43:55.793Z,17.36
2022-11-19T12:47:10.903Z,17.39
2022-11-19T12:50:24.773Z,17.44
2022-11-19T12:54:04.397Z,17.20
2022-11-19T12:57:30.160Z,17.11
2022-11-19T13:00:41.109Z,17.37
2022-11-19T13:03:56.509Z,17.14
2022-11-19T13:07:09.739Z,17.33
2022-11-19T13:10:19.903Z,16.84
2022-11-19T13:13:30.796Z,16.78
2022-11-19T13:16:37.412Z,16.89
2022-11-19T13:19:47.717Z,16.91
2022-11-19T13:22:59.332Z,16.98
2022-11-19T13:26:11.740Z,17.03
2022-11-19T13:29:30.267Z,16.92
2022-11-19T13:32:42.094Z,17.05
2022-11-19T13:35:54.110Z,16.96
2022-11-19T13:39:05.791Z,17.11
2022-11-19T13:42:29.863Z,16.98
2022-11-19T13:45:38.148Z,16.99
2022-11-19T13:48:48.057Z,16.98
2022-11-19T13:51:57.265Z,17.06
2022-11-19T13:55:07.192Z,17.02
2022-11-19T13:58:20.432Z,16.99
2022-11-19T14:01:57.237Z,16.88
2022-11-19T14:05:33.009Z,17.12
2022-11-19T14:08:58.586Z,17.00
2022-11-19T14:12:49.671Z,17.26
2022-11-19T14:16:33.685Z,17.36
2022-11-19T14:20:07.686Z,17.30
2022-11-19T14:24:01.599Z,17.29
2022-11-19T14:27:26.763Z,17.03
2022-11-19T14:31:05.204Z,17.35
2022-11-19T14:34:27.035Z,17.36
2022-11-19T14:37:39.748Z,17.16
2022-11-19T14:40:46.480Z,17.07
2022-11-19T14:44:11.188Z,17.07
2022-11-19T14:47:35.382Z,17.32
2022-11-19T14:50:41.846Z,17.00
2022-11-19T14:53:51.201Z,16.61
2022-11-19T14:57:05.632Z,16.89
2022-11-19T15:00:29.896Z,16.87
2022-11-19T15:03:38.446Z,17.15
2022-11-19T15:06:46.897Z,17.05
2022-11-19T15:10:04.314Z,17.03
2022-11-19T15:13:26.602Z,16.98
2022-11-19T15:16:36.377Z,17.02
2022-11-19T15:19:53.366Z,17.02
2022-11-19T15:23:09.922Z,17.18
2022-11-19T15:26:23.438Z,17.16
2022-11-19T15:30:01.090Z,16.95
2022-11-19T15:33:24.213Z,16.97
2022-11-19T15:36:39.731Z,17.18
2022-11-19T15:39:49.331Z,17.29
2022-11-19T15:43:03.259Z,17.11
2022-11-19T15:46:14.886Z,17.11
2022-11-19T15:49:24.386Z,17.22
2022-11-19T15:52:33.404Z,17.22
2022-11-19T15:55:40.036Z,17.13
2022-11-19T15:58:47.957Z,17.14
2022-11-19T16:02:01.184Z,16.77
2022-11-19T16:05:08.868Z,17.11
2022-11-19T16:08:17.290Z,16.93
2022-11-19T16:11:43.625Z,17.12
2022-11-19T16:15:13.010Z,17.31
2022-11-19T16:18:21.060Z,17.37
2022-11-19T16:21:32.622Z,17.04
2022-11-19T16:24:57.585Z,16.87
2022-11-19T16:28:07.498Z,16.94
2022-11-19T16:31:13.783Z,16.52
2022-11-19T16:34:23.860Z,16.63
2022-11-19T16:37:30.458Z,16.50
2022-11-19T16:40:51.813Z,16.55
2022-11-19T16:43:58.711Z,16.25
2022-11-19T16:47:07.990Z,16.36
2022-11-19T16:50:28.237Z,16.43
2022-11-19T16:53:46.764Z,16.40
2022-11-19T16:56:54.597Z,16.45
2022-11-19T17:00:04.478Z,16.48
2022-11-19T17:03:20.580Z,16.34
2022-11-19T17:06:26.877Z,16.56
2022-11-19T17:09:41.666Z,16.57
2022-11-19T17:12:54.068Z,16.78
2022-11-19T17:16:18.217Z,16.56
2022-11-19T17:19:32.077Z,16.71
2022-11-19T17:22:40.657Z,16.97
2022-11-19T17:25:48.857Z,16.65
2022-11-19T17:29:08.674Z,16.50
2022-11-19T17:32:15.345Z,16.49
2022-11-19T17:35:37.934Z,16.42
2022-11-19T17:38:44.844Z,16.48
2022-11-19T17:42:08.741Z,16.35
2022-11-19T17:45:16.752Z,16.35
2022-11-19T17:48:24.739Z,16.31
2022-11-19T17:51:31.338Z,16.37
2022-11-19T17:54:37.609Z,16.25
2022-11-19T17:57:43.791Z,16.32
2022-11-19T18:00:51.686Z,16.31
2022-11-19T18:03:57.826Z,16.25
2022-11-19T18:07:04.146Z,16.01
2022-11-19T18:10:11.044Z,15.87
2022-11-19T18:13:22.057Z,15.73
2022-11-19T18:16:35.090Z,15.58
2022-11-19T18:19:41.994Z,15.66
2022-11-19T18:22:48.349Z,15.70
2022-11-19T18:25:54.810Z,15.91
2022-11-19T18:29:01.390Z,15.81
2022-11-19T18:32:15.372Z,15.76
2022-11-19T18:35:22.709Z,15.79
2022-11-19T18:38:28.728Z,15.76
2022-11-19T18:41:34.733Z,15.80
2022-11-19T18:44:43.539Z,15.66
2022-11-19T18:47:51.467Z,15.74
2022-11-19T18:50:57.662Z,15.60
2022-11-19T18:54:04.366Z,15.50
2022-11-19T18:57:11.222Z,15.41
2022-11-19T19:00:17.612Z,15.42
2022-11-19T19:03:25.437Z,15.69
2022-11-19T19:06:32.526Z,15.56
2022-11-19T19:09:38.565Z,15.64
2022-11-19T19:12:44.624Z,15.70
2022-11-19T19:15:50.997Z,15.73
2022-11-19T19:18:58.617Z,16.02
2022-11-19T19:22:05.902Z,15.79
2022-11-19T19:25:12.380Z,15.97
2022-11-19T19:28:18.523Z,15.99
2022-11-19T19:31:25.425Z,16.09
2022-11-19T19:34:33.047Z,16.12
2022-11-19T19:37:39.895Z,16.19
2022-11-19T19:40:45.901Z,16.36
2022-11-19T19:43:52.398Z,16.54
2022-11-19T19:46:58.792Z,16.21
2022-11-19T19:50:07.125Z,16.30
2022-11-19T19:53:13.611Z,16.27
2022-11-19T19:56:22.380Z,16.31
2022-11-19T19:59:28.219Z,16.26
2022-11-19T20:02:34.462Z,15.79
2022-11-19T20:05:48.570Z,15.67
2022-11-19T20:08:54.466Z,15.75
2022-11-19T20:12:01.025Z,16.05
2022-11-19T20:15:08.261Z,16.10
2022-11-19T20:18:14.579Z,15.93
2022-11-19T20:21:24.468Z,15.89
2022-11-19T20:24:30.800Z,15.83
2022-11-19T20:27:36.941Z,15.89
2022-11-19T20:30:42.835Z,16.10
2022-11-19T20:33:53.794Z,16.07
2022-11-19T20:37:01.010Z,16.13
2022-11-19T20:40:07.969Z,16.09
2022-11-19T20:43:31.979Z,16.01
2022-11-19T20:46:38.241Z,16.20
2022-11-19T20:49:44.497Z,16.30
2022-11-19T20:52:52.076Z,16.41
2022-11-19T20:56:05.062Z,16.29
2022-11-19T20:59:12.750Z,16.38
2022-11-19T21:02:19.162Z,16.22
2022-11-19T21:05:25.504Z,16.51
2022-11-19T21:08:33.550Z,16.54
2022-11-19T21:11:39.879Z,16.55
2022-11-19T21:14:46.550Z,16.80
2022-11-19T21:17:52.589Z,16.59
2022-11-19T21:21:02.566Z,16.71
2022-11-19T21:24:10.289Z,16.67
2022-11-19T21:27:16.239Z,16.77
2022-11-19T21:30:22.554Z,16.76
2022-11-19T21:33:28.766Z,16.77
2022-11-19T21:36:35.294Z,16.59
2022-11-19T21:39:42.677Z,16.66
2022-11-19T21:42:48.821Z,16.69
2022-11-19T21:45:55.969Z,16.67
2022-11-19T21:49:02.188Z,16.89
2022-11-19T21:52:08.412Z,16.89
2022-11-19T21:55:16.081Z,16.87
2022-11-19T21:58:22.597Z,16.81
2022-11-19T22:01:28.815Z,16.79
2022-11-19T22:04:35.330Z,16.76
2022-11-19T22:07:41.600Z,16.86
2022-11-19T22:10:51.266Z,16.81
2022-11-19T22:13:58.402Z,16.89
2022-11-19T22:17:04.660Z,16.96
2022-11-19T22:20:11.983Z,16.83
2022-11-19T22:23:23.992Z,16.84
2022-11-19T22:26:32.322Z,16.78
2022-11-19T22:29:41.469Z,16.80
2022-11-19T22:32:47.598Z,16.95
2022-11-19T22:35:58.720Z,16.93
2022-11-19T22:39:05.310Z,16.96
2022-11-19T22:42:12.752Z,16.69
2022-11-19T22:45:19.079Z,16.89
2022-11-19T22:48:25.613Z,17.03
2022-11-19T22:51:31.994Z,16.98
2022-11-19T22:54:41.582Z,16.94
2022-11-19T22:57:49.830Z,16.86
2022-11-19T23:00:56.447Z,16.76
2022-11-19T23:04:05.960Z,16.67
2022-11-19T23:07:12.287Z,16.80
2022-11-19T23:10:18.825Z,16.61
2022-11-19T23:13:32.867Z,16.47
2022-11-19T23:16:39.575Z,16.57
2022-11-19T23:19:45.729Z,16.31
2022-11-19T23:22:51.659Z,16.35
2022-11-19T23:25:58.739Z,16.38
2022-11-19T23:29:06.631Z,16.34
2022-11-19T23:32:12.851Z,16.40
2022-11-19T23:35:19.447Z,16.37
2022-11-19T23:38:25.993Z,16.21
2022-11-19T23:41:33.602Z,16.18
2022-11-19T23:44:41.114Z,16.33
2022-11-19T23:47:47.223Z,16.18
2022-11-19T23:50:53.432Z,16.27
2022-11-19T23:54:00.090Z,16.13
2022-11-19T23:57:06.369Z,16.30
